sensor_id;sensor_type;location;lat;lon;timestamp;P1;durP1;ratioP1;P2;durP2;ratioP2
69906;SDS011;57190;47.918;8.112;2023-12-14T00:01:21;0.47;;;0.47;;
69906;SDS011;57190;47.918;8.112;2023-12-14T00:03:49;0.50;;;0.50;;
69906;SDS011;57190;47.918;8.112;2023-12-14T00:06:15;0.50;;;0.50;;
69906;SDS011;57190;47.918;8.112;2023-12-14T00:08:46;0.57;;;0.57;;
69906;SDS011;57190;47.918;8.112;2023-12-14T00:11:14;0.50;;;0.50;;
69906;SDS011;57190;47.918;8.112;2023-12-14T00:13:40;0.50;;;0.50;;
69906;SDS011;57190;47.918;8.112;2023-12-14T00:16:06;0.40;;;0.40;;
69906;SDS011;57190;47.918;8.112;2023-12-14T00:18:32;0.40;;;0.40;;
69906;SDS011;57190;47.918;8.112;2023-12-14T00:20:58;0.50;;;0.50;;
69906;SDS011;57190;47.918;8.112;2023-12-14T00:23:23;0.37;;;0.37;;
69906;SDS011;57190;47.918;8.112;2023-12-14T00:25:49;0.67;;;0.53;;
69906;SDS011;57190;47.918;8.112;2023-12-14T00:28:15;0.50;;;0.50;;
69906;SDS011;57190;47.918;8.112;2023-12-14T00:30:40;0.50;;;0.50;;
69906;SDS011;57190;47.918;8.112;2023-12-14T00:33:07;0.50;;;0.50;;
69906;SDS011;57190;47.918;8.112;2023-12-14T00:35:32;0.50;;;0.50;;
69906;SDS011;57190;47.918;8.112;2023-12-14T00:37:58;0.60;;;0.60;;
69906;SDS011;57190;47.918;8.112;2023-12-14T00:40:23;0.60;;;0.60;;
69906;SDS011;57190;47.918;8.112;2023-12-14T00:42:52;0.50;;;0.50;;
69906;SDS011;57190;47.918;8.112;2023-12-14T00:45:27;0.53;;;0.53;;
69906;SDS011;57190;47.918;8.112;2023-12-14T00:47:52;0.60;;;0.60;;
69906;SDS011;57190;47.918;8.112;2023-12-14T00:50:18;0.50;;;0.50;;
69906;SDS011;57190;47.918;8.112;2023-12-14T00:52:43;0.60;;;0.60;;
69906;SDS011;57190;47.918;8.112;2023-12-14T00:55:12;0.60;;;0.60;;
69906;SDS011;57190;47.918;8.112;2023-12-14T00:57:43;0.60;;;0.60;;
69906;SDS011;57190;47.918;8.112;2023-12-14T01:00:09;0.97;;;0.60;;
69906;SDS011;57190;47.918;8.112;2023-12-14T01:02:35;1.30;;;0.77;;
69906;SDS011;57190;47.918;8.112;2023-12-14T01:05:01;1.47;;;0.60;;
69906;SDS011;57190;47.918;8.112;2023-12-14T01:07:27;0.60;;;0.60;;
69906;SDS011;57190;47.918;8.112;2023-12-14T01:09:52;0.70;;;0.70;;
69906;SDS011;57190;47.918;8.112;2023-12-14T01:12:18;0.70;;;0.70;;
69906;SDS011;57190;47.918;8.112;2023-12-14T01:14:43;0.70;;;0.70;;
69906;SDS011;57190;47.918;8.112;2023-12-14T01:17:09;0.83;;;0.83;;
69906;SDS011;57190;47.918;8.112;2023-12-14T01:19:39;0.60;;;0.60;;
69906;SDS011;57190;47.918;8.112;2023-12-14T01:22:08;1.17;;;0.90;;
69906;SDS011;57190;47.918;8.112;2023-12-14T01:24:33;0.90;;;0.90;;
69906;SDS011;57190;47.918;8.112;2023-12-14T01:26:59;0.70;;;0.70;;
69906;SDS011;57190;47.918;8.112;2023-12-14T01:29:24;1.10;;;1.00;;
69906;SDS011;57190;47.918;8.112;2023-12-14T01:31:50;0.80;;;0.80;;
69906;SDS011;57190;47.918;8.112;2023-12-14T01:34:16;1.20;;;0.83;;
69906;SDS011;57190;47.918;8.112;2023-12-14T01:36:41;0.80;;;0.80;;
69906;SDS011;57190;47.918;8.112;2023-12-14T01:39:07;2.60;;;0.70;;
69906;SDS011;57190;47.918;8.112;2023-12-14T01:41:33;0.80;;;0.80;;
69906;SDS011;57190;47.918;8.112;2023-12-14T01:43:59;0.97;;;0.97;;
69906;SDS011;57190;47.918;8.112;2023-12-14T01:46:24;0.90;;;0.90;;
69906;SDS011;57190;47.918;8.112;2023-12-14T01:48:52;0.70;;;0.70;;
69906;SDS011;57190;47.918;8.112;2023-12-14T01:51:18;0.70;;;0.70;;
69906;SDS011;57190;47.918;8.112;2023-12-14T01:53:44;1.00;;;1.00;;
69906;SDS011;57190;47.918;8.112;2023-12-14T01:56:09;1.20;;;0.80;;
69906;SDS011;57190;47.918;8.112;2023-12-14T01:58:35;0.90;;;0.90;;
69906;SDS011;57190;47.918;8.112;2023-12-14T02:03:35;0.67;;;0.67;;
69906;SDS011;57190;47.918;8.112;2023-12-14T02:06:01;0.70;;;0.70;;
69906;SDS011;57190;47.918;8.112;2023-12-14T02:08:29;0.80;;;0.80;;
69906;SDS011;57190;47.918;8.112;2023-12-14T02:10:55;0.67;;;0.67;;
69906;SDS011;57190;47.918;8.112;2023-12-14T02:13:20;0.70;;;0.70;;
69906;SDS011;57190;47.918;8.112;2023-12-14T02:15:47;0.97;;;0.70;;
69906;SDS011;57190;47.918;8.112;2023-12-14T02:18:16;0.80;;;0.80;;
69906;SDS011;57190;47.918;8.112;2023-12-14T02:20:41;0.80;;;0.70;;
69906;SDS011;57190;47.918;8.112;2023-12-14T02:23:07;0.70;;;0.70;;
69906;SDS011;57190;47.918;8.112;2023-12-14T02:25:32;1.03;;;0.80;;
69906;SDS011;57190;47.918;8.112;2023-12-14T02:28:10;0.50;;;0.50;;
69906;SDS011;57190;47.918;8.112;2023-12-14T02:30:35;0.73;;;0.70;;
69906;SDS011;57190;47.918;8.112;2023-12-14T02:33:01;0.70;;;0.70;;
69906;SDS011;57190;47.918;8.112;2023-12-14T02:35:27;0.70;;;0.70;;
69906;SDS011;57190;47.918;8.112;2023-12-14T02:37:52;0.90;;;0.90;;
69906;SDS011;57190;47.918;8.112;2023-12-14T02:40:18;0.60;;;0.60;;
69906;SDS011;57190;47.918;8.112;2023-12-14T02:42:43;0.80;;;0.80;;
69906;SDS011;57190;47.918;8.112;2023-12-14T02:45:09;0.50;;;0.50;;
69906;SDS011;57190;47.918;8.112;2023-12-14T02:47:35;0.60;;;0.60;;
69906;SDS011;57190;47.918;8.112;2023-12-14T02:50:00;0.60;;;0.60;;
69906;SDS011;57190;47.918;8.112;2023-12-14T02:52:26;0.60;;;0.60;;
69906;SDS011;57190;47.918;8.112;2023-12-14T02:54:51;0.60;;;0.60;;
69906;SDS011;57190;47.918;8.112;2023-12-14T02:57:17;1.27;;;0.70;;
69906;SDS011;57190;47.918;8.112;2023-12-14T02:59:42;0.70;;;0.70;;
69906;SDS011;57190;47.918;8.112;2023-12-14T03:02:08;0.70;;;0.70;;
69906;SDS011;57190;47.918;8.112;2023-12-14T03:04:34;0.80;;;0.80;;
69906;SDS011;57190;47.918;8.112;2023-12-14T03:07:06;1.03;;;0.63;;
69906;SDS011;57190;47.918;8.112;2023-12-14T03:09:31;0.93;;;0.60;;
69906;SDS011;57190;47.918;8.112;2023-12-14T03:11:59;0.40;;;0.40;;
69906;SDS011;57190;47.918;8.112;2023-12-14T03:14:25;0.50;;;0.50;;
69906;SDS011;57190;47.918;8.112;2023-12-14T03:16:50;0.60;;;0.60;;
69906;SDS011;57190;47.918;8.112;2023-12-14T03:19:16;0.60;;;0.60;;
69906;SDS011;57190;47.918;8.112;2023-12-14T03:21:42;0.50;;;0.50;;
69906;SDS011;57190;47.918;8.112;2023-12-14T03:24:08;0.53;;;0.53;;
69906;SDS011;57190;47.918;8.112;2023-12-14T03:26:34;0.43;;;0.43;;
69906;SDS011;57190;47.918;8.112;2023-12-14T03:29:00;0.60;;;0.60;;
69906;SDS011;57190;47.918;8.112;2023-12-14T03:31:28;0.70;;;0.70;;
69906;SDS011;57190;47.918;8.112;2023-12-14T03:33:57;0.50;;;0.50;;
69906;SDS011;57190;47.918;8.112;2023-12-14T03:36:22;0.50;;;0.50;;
69906;SDS011;57190;47.918;8.112;2023-12-14T03:38:53;0.57;;;0.53;;
69906;SDS011;57190;47.918;8.112;2023-12-14T03:41:19;0.70;;;0.70;;
69906;SDS011;57190;47.918;8.112;2023-12-14T03:43:45;0.60;;;0.60;;
69906;SDS011;57190;47.918;8.112;2023-12-14T03:46:10;0.80;;;0.80;;
69906;SDS011;57190;47.918;8.112;2023-12-14T03:48:42;0.70;;;0.70;;
69906;SDS011;57190;47.918;8.112;2023-12-14T03:51:07;0.60;;;0.60;;
69906;SDS011;57190;47.918;8.112;2023-12-14T03:53:33;0.70;;;0.70;;
69906;SDS011;57190;47.918;8.112;2023-12-14T03:55:58;0.77;;;0.77;;
69906;SDS011;57190;47.918;8.112;2023-12-14T03:58:24;0.70;;;0.70;;
69906;SDS011;57190;47.918;8.112;2023-12-14T04:00:49;1.00;;;1.00;;
69906;SDS011;57190;47.918;8.112;2023-12-14T04:03:15;0.77;;;0.77;;
69906;SDS011;57190;47.918;8.112;2023-12-14T04:05:40;0.97;;;0.83;;
69906;SDS011;57190;47.918;8.112;2023-12-14T04:08:06;0.77;;;0.77;;
69906;SDS011;57190;47.918;8.112;2023-12-14T04:10:31;1.00;;;1.00;;
69906;SDS011;57190;47.918;8.112;2023-12-14T04:12:57;0.90;;;0.90;;
69906;SDS011;57190;47.918;8.112;2023-12-14T04:15:23;1.00;;;1.00;;
69906;SDS011;57190;47.918;8.112;2023-12-14T04:17:48;0.80;;;0.80;;
69906;SDS011;57190;47.918;8.112;2023-12-14T04:20:14;1.00;;;1.00;;
69906;SDS011;57190;47.918;8.112;2023-12-14T04:22:41;0.80;;;0.80;;
69906;SDS011;57190;47.918;8.112;2023-12-14T04:25:08;0.93;;;0.93;;
69906;SDS011;57190;47.918;8.112;2023-12-14T04:27:33;0.80;;;0.80;;
69906;SDS011;57190;47.918;8.112;2023-12-14T04:29:59;0.80;;;0.80;;
69906;SDS011;57190;47.918;8.112;2023-12-14T04:32:25;0.80;;;0.80;;
69906;SDS011;57190;47.918;8.112;2023-12-14T04:34:50;1.63;;;0.70;;
69906;SDS011;57190;47.918;8.112;2023-12-14T04:37:16;0.77;;;0.77;;
69906;SDS011;57190;47.918;8.112;2023-12-14T04:39:48;0.83;;;0.83;;
69906;SDS011;57190;47.918;8.112;2023-12-14T04:42:13;0.63;;;0.63;;
69906;SDS011;57190;47.918;8.112;2023-12-14T04:44:39;0.80;;;0.80;;
69906;SDS011;57190;47.918;8.112;2023-12-14T04:47:05;0.60;;;0.60;;
69906;SDS011;57190;47.918;8.112;2023-12-14T04:49:30;0.80;;;0.80;;
69906;SDS011;57190;47.918;8.112;2023-12-14T04:51:56;0.67;;;0.63;;
69906;SDS011;57190;47.918;8.112;2023-12-14T04:54:21;1.43;;;0.83;;
69906;SDS011;57190;47.918;8.112;2023-12-14T04:56:47;0.70;;;0.70;;
69906;SDS011;57190;47.918;8.112;2023-12-14T04:59:13;0.60;;;0.60;;
69906;SDS011;57190;47.918;8.112;2023-12-14T05:01:38;0.50;;;0.50;;
69906;SDS011;57190;47.918;8.112;2023-12-14T05:04:04;0.90;;;0.90;;
69906;SDS011;57190;47.918;8.112;2023-12-14T05:06:29;0.70;;;0.70;;
69906;SDS011;57190;47.918;8.112;2023-12-14T05:09:00;0.63;;;0.60;;
69906;SDS011;57190;47.918;8.112;2023-12-14T05:11:29;0.70;;;0.70;;
69906;SDS011;57190;47.918;8.112;2023-12-14T05:13:55;1.67;;;0.60;;
69906;SDS011;57190;47.918;8.112;2023-12-14T05:16:20;0.60;;;0.60;;
69906;SDS011;57190;47.918;8.112;2023-12-14T05:18:58;0.70;;;0.70;;
69906;SDS011;57190;47.918;8.112;2023-12-14T05:21:30;0.57;;;0.57;;
69906;SDS011;57190;47.918;8.112;2023-12-14T05:23:55;0.80;;;0.80;;
69906;SDS011;57190;47.918;8.112;2023-12-14T05:26:21;0.60;;;0.60;;
69906;SDS011;57190;47.918;8.112;2023-12-14T05:28:47;0.60;;;0.60;;
69906;SDS011;57190;47.918;8.112;2023-12-14T05:31:13;0.50;;;0.50;;
69906;SDS011;57190;47.918;8.112;2023-12-14T05:33:38;0.63;;;0.63;;
69906;SDS011;57190;47.918;8.112;2023-12-14T05:36:05;0.70;;;0.70;;
69906;SDS011;57190;47.918;8.112;2023-12-14T05:38:35;0.60;;;0.60;;
69906;SDS011;57190;47.918;8.112;2023-12-14T05:41:01;0.60;;;0.60;;
69906;SDS011;57190;47.918;8.112;2023-12-14T05:43:26;0.67;;;0.67;;
69906;SDS011;57190;47.918;8.112;2023-12-14T05:45:55;0.60;;;0.60;;
69906;SDS011;57190;47.918;8.112;2023-12-14T05:48:20;0.60;;;0.60;;
69906;SDS011;57190;47.918;8.112;2023-12-14T05:50:46;0.60;;;0.60;;
69906;SDS011;57190;47.918;8.112;2023-12-14T05:53:23;0.60;;;0.60;;
69906;SDS011;57190;47.918;8.112;2023-12-14T05:55:49;1.30;;;0.67;;
69906;SDS011;57190;47.918;8.112;2023-12-14T05:58:14;0.70;;;0.70;;
69906;SDS011;57190;47.918;8.112;2023-12-14T06:00:40;1.60;;;1.10;;
69906;SDS011;57190;47.918;8.112;2023-12-14T06:03:06;0.90;;;0.90;;
69906;SDS011;57190;47.918;8.112;2023-12-14T06:05:31;1.10;;;1.10;;
69906;SDS011;57190;47.918;8.112;2023-12-14T06:07:57;0.87;;;0.87;;
69906;SDS011;57190;47.918;8.112;2023-12-14T06:10:23;1.53;;;1.23;;
69906;SDS011;57190;47.918;8.112;2023-12-14T06:12:48;1.10;;;1.10;;
69906;SDS011;57190;47.918;8.112;2023-12-14T06:15:14;1.47;;;1.27;;
69906;SDS011;57190;47.918;8.112;2023-12-14T06:17:39;1.80;;;1.70;;
69906;SDS011;57190;47.918;8.112;2023-12-14T06:20:07;0.77;;;0.77;;
69906;SDS011;57190;47.918;8.112;2023-12-14T06:22:33;1.10;;;1.10;;
69906;SDS011;57190;47.918;8.112;2023-12-14T06:25:05;1.03;;;1.03;;
69906;SDS011;57190;47.918;8.112;2023-12-14T06:27:42;1.13;;;1.13;;
69906;SDS011;57190;47.918;8.112;2023-12-14T06:30:08;1.10;;;1.10;;
69906;SDS011;57190;47.918;8.112;2023-12-14T06:32:37;0.90;;;0.90;;
69906;SDS011;57190;47.918;8.112;2023-12-14T06:35:02;1.03;;;1.03;;
69906;SDS011;57190;47.918;8.112;2023-12-14T06:37:28;1.00;;;1.00;;
69906;SDS011;57190;47.918;8.112;2023-12-14T06:39:54;1.13;;;1.07;;
69906;SDS011;57190;47.918;8.112;2023-12-14T06:42:19;0.93;;;0.93;;
69906;SDS011;57190;47.918;8.112;2023-12-14T06:44:46;1.87;;;1.10;;
69906;SDS011;57190;47.918;8.112;2023-12-14T06:47:11;1.13;;;1.13;;
69906;SDS011;57190;47.918;8.112;2023-12-14T06:49:38;0.90;;;0.90;;
69906;SDS011;57190;47.918;8.112;2023-12-14T06:52:06;1.07;;;0.97;;
69906;SDS011;57190;47.918;8.112;2023-12-14T06:54:32;0.73;;;0.73;;
69906;SDS011;57190;47.918;8.112;2023-12-14T06:56:58;1.90;;;0.70;;
69906;SDS011;57190;47.918;8.112;2023-12-14T06:59:23;1.00;;;1.00;;
69906;SDS011;57190;47.918;8.112;2023-12-14T07:01:49;0.90;;;0.90;;
69906;SDS011;57190;47.918;8.112;2023-12-14T07:04:14;0.60;;;0.60;;
69906;SDS011;57190;47.918;8.112;2023-12-14T07:06:40;0.63;;;0.63;;
69906;SDS011;57190;47.918;8.112;2023-12-14T07:09:06;0.57;;;0.53;;
69906;SDS011;57190;47.918;8.112;2023-12-14T07:11:31;0.50;;;0.50;;
69906;SDS011;57190;47.918;8.112;2023-12-14T07:13:57;0.50;;;0.50;;
69906;SDS011;57190;47.918;8.112;2023-12-14T07:16:22;0.60;;;0.60;;
69906;SDS011;57190;47.918;8.112;2023-12-14T07:18:48;0.70;;;0.70;;
69906;SDS011;57190;47.918;8.112;2023-12-14T07:21:13;0.47;;;0.47;;
69906;SDS011;57190;47.918;8.112;2023-12-14T07:23:39;0.50;;;0.50;;
69906;SDS011;57190;47.918;8.112;2023-12-14T07:26:04;0.60;;;0.60;;
69906;SDS011;57190;47.918;8.112;2023-12-14T07:28:30;0.60;;;0.60;;
69906;SDS011;57190;47.918;8.112;2023-12-14T07:30:56;0.70;;;0.70;;
69906;SDS011;57190;47.918;8.112;2023-12-14T07:33:21;0.77;;;0.73;;
69906;SDS011;57190;47.918;8.112;2023-12-14T07:35:47;1.37;;;0.90;;
69906;SDS011;57190;47.918;8.112;2023-12-14T07:38:15;1.00;;;1.00;;
69906;SDS011;57190;47.918;8.112;2023-12-14T07:40:53;1.30;;;0.73;;
69906;SDS011;57190;47.918;8.112;2023-12-14T07:43:18;1.00;;;1.00;;
69906;SDS011;57190;47.918;8.112;2023-12-14T07:45:44;0.73;;;0.73;;
69906;SDS011;57190;47.918;8.112;2023-12-14T07:48:10;0.80;;;0.80;;
69906;SDS011;57190;47.918;8.112;2023-12-14T07:50:36;0.87;;;0.87;;
69906;SDS011;57190;47.918;8.112;2023-12-14T07:53:01;0.90;;;0.90;;
69906;SDS011;57190;47.918;8.112;2023-12-14T07:55:27;0.90;;;0.90;;
69906;SDS011;57190;47.918;8.112;2023-12-14T07:57:54;1.03;;;1.03;;
69906;SDS011;57190;47.918;8.112;2023-12-14T08:00:19;1.03;;;1.00;;
69906;SDS011;57190;47.918;8.112;2023-12-14T08:02:45;1.30;;;1.20;;
69906;SDS011;57190;47.918;8.112;2023-12-14T08:05:10;0.80;;;0.80;;
69906;SDS011;57190;47.918;8.112;2023-12-14T08:07:36;0.90;;;0.90;;
69906;SDS011;57190;47.918;8.112;2023-12-14T08:10:02;0.80;;;0.80;;
69906;SDS011;57190;47.918;8.112;2023-12-14T08:12:28;0.67;;;0.67;;
69906;SDS011;57190;47.918;8.112;2023-12-14T08:14:53;0.60;;;0.60;;
69906;SDS011;57190;47.918;8.112;2023-12-14T08:17:19;1.10;;;0.57;;
69906;SDS011;57190;47.918;8.112;2023-12-14T08:19:45;0.73;;;0.73;;
69906;SDS011;57190;47.918;8.112;2023-12-14T08:22:10;0.63;;;0.63;;
69906;SDS011;57190;47.918;8.112;2023-12-14T08:24:40;0.63;;;0.63;;
69906;SDS011;57190;47.918;8.112;2023-12-14T08:27:05;0.50;;;0.50;;
69906;SDS011;57190;47.918;8.112;2023-12-14T08:29:31;0.93;;;0.60;;
69906;SDS011;57190;47.918;8.112;2023-12-14T08:31:56;0.53;;;0.53;;
69906;SDS011;57190;47.918;8.112;2023-12-14T08:34:27;0.60;;;0.60;;
69906;SDS011;57190;47.918;8.112;2023-12-14T08:36:53;0.60;;;0.60;;
69906;SDS011;57190;47.918;8.112;2023-12-14T08:39:18;0.50;;;0.50;;
69906;SDS011;57190;47.918;8.112;2023-12-14T08:41:47;0.70;;;0.70;;
69906;SDS011;57190;47.918;8.112;2023-12-14T08:44:14;0.60;;;0.60;;
69906;SDS011;57190;47.918;8.112;2023-12-14T08:46:41;0.60;;;0.60;;
69906;SDS011;57190;47.918;8.112;2023-12-14T08:49:08;0.70;;;0.70;;
69906;SDS011;57190;47.918;8.112;2023-12-14T08:51:33;0.53;;;0.53;;
69906;SDS011;57190;47.918;8.112;2023-12-14T08:53:59;1.17;;;1.00;;
69906;SDS011;57190;47.918;8.112;2023-12-14T08:56:24;0.57;;;0.57;;
69906;SDS011;57190;47.918;8.112;2023-12-14T08:58:50;0.70;;;0.70;;
69906;SDS011;57190;47.918;8.112;2023-12-14T09:01:19;0.60;;;0.60;;
69906;SDS011;57190;47.918;8.112;2023-12-14T09:03:46;0.60;;;0.60;;
69906;SDS011;57190;47.918;8.112;2023-12-14T09:06:11;0.73;;;0.73;;
69906;SDS011;57190;47.918;8.112;2023-12-14T09:08:37;0.50;;;0.50;;
69906;SDS011;57190;47.918;8.112;2023-12-14T09:11:02;0.70;;;0.70;;
69906;SDS011;57190;47.918;8.112;2023-12-14T09:13:29;0.40;;;0.40;;
69906;SDS011;57190;47.918;8.112;2023-12-14T09:15:54;0.60;;;0.60;;
69906;SDS011;57190;47.918;8.112;2023-12-14T09:18:20;0.60;;;0.60;;
69906;SDS011;57190;47.918;8.112;2023-12-14T09:20:47;0.90;;;0.90;;
69906;SDS011;57190;47.918;8.112;2023-12-14T09:23:15;2.23;;;1.00;;
69906;SDS011;57190;47.918;8.112;2023-12-14T09:25:41;1.00;;;1.00;;
69906;SDS011;57190;47.918;8.112;2023-12-14T09:28:06;0.90;;;0.90;;
69906;SDS011;57190;47.918;8.112;2023-12-14T09:30:32;0.97;;;0.97;;
69906;SDS011;57190;47.918;8.112;2023-12-14T09:32:58;0.80;;;0.80;;
69906;SDS011;57190;47.918;8.112;2023-12-14T09:35:23;0.70;;;0.70;;
69906;SDS011;57190;47.918;8.112;2023-12-14T09:37:49;0.60;;;0.60;;
69906;SDS011;57190;47.918;8.112;2023-12-14T09:40:15;0.70;;;0.70;;
69906;SDS011;57190;47.918;8.112;2023-12-14T09:42:42;0.73;;;0.73;;
69906;SDS011;57190;47.918;8.112;2023-12-14T09:45:08;0.70;;;0.70;;
69906;SDS011;57190;47.918;8.112;2023-12-14T09:47:35;0.43;;;0.43;;
69906;SDS011;57190;47.918;8.112;2023-12-14T09:50:01;0.50;;;0.50;;
69906;SDS011;57190;47.918;8.112;2023-12-14T09:52:28;0.60;;;0.60;;
69906;SDS011;57190;47.918;8.112;2023-12-14T09:54:54;0.50;;;0.50;;
69906;SDS011;57190;47.918;8.112;2023-12-14T09:57:19;0.40;;;0.40;;
69906;SDS011;57190;47.918;8.112;2023-12-14T09:59:51;0.40;;;0.40;;
69906;SDS011;57190;47.918;8.112;2023-12-14T10:02:24;0.60;;;0.60;;
69906;SDS011;57190;47.918;8.112;2023-12-14T10:04:52;0.40;;;0.40;;
69906;SDS011;57190;47.918;8.112;2023-12-14T10:07:18;0.33;;;0.33;;
69906;SDS011;57190;47.918;8.112;2023-12-14T10:09:45;0.40;;;0.40;;
69906;SDS011;57190;47.918;8.112;2023-12-14T10:12:10;0.50;;;0.50;;
69906;SDS011;57190;47.918;8.112;2023-12-14T10:14:36;0.60;;;0.60;;
69906;SDS011;57190;47.918;8.112;2023-12-14T10:17:13;0.43;;;0.43;;
69906;SDS011;57190;47.918;8.112;2023-12-14T10:19:56;0.50;;;0.50;;
69906;SDS011;57190;47.918;8.112;2023-12-14T10:22:22;0.40;;;0.40;;
69906;SDS011;57190;47.918;8.112;2023-12-14T10:24:47;0.43;;;0.43;;
69906;SDS011;57190;47.918;8.112;2023-12-14T10:27:16;0.50;;;0.50;;
69906;SDS011;57190;47.918;8.112;2023-12-14T10:29:42;0.30;;;0.30;;
69906;SDS011;57190;47.918;8.112;2023-12-14T10:32:09;0.40;;;0.40;;
69906;SDS011;57190;47.918;8.112;2023-12-14T10:34:36;0.40;;;0.40;;
69906;SDS011;57190;47.918;8.112;2023-12-14T10:37:04;0.50;;;0.50;;
69906;SDS011;57190;47.918;8.112;2023-12-14T10:39:31;0.77;;;0.40;;
69906;SDS011;57190;47.918;8.112;2023-12-14T10:41:59;0.37;;;0.37;;
69906;SDS011;57190;47.918;8.112;2023-12-14T10:44:28;0.50;;;0.50;;
69906;SDS011;57190;47.918;8.112;2023-12-14T10:46:58;0.30;;;0.30;;
69906;SDS011;57190;47.918;8.112;2023-12-14T10:49:24;0.50;;;0.50;;
69906;SDS011;57190;47.918;8.112;2023-12-14T10:51:51;0.40;;;0.40;;
69906;SDS011;57190;47.918;8.112;2023-12-14T10:54:22;0.40;;;0.40;;
69906;SDS011;57190;47.918;8.112;2023-12-14T10:56:49;0.33;;;0.30;;
69906;SDS011;57190;47.918;8.112;2023-12-14T10:59:19;0.60;;;0.60;;
69906;SDS011;57190;47.918;8.112;2023-12-14T11:01:44;0.37;;;0.37;;
69906;SDS011;57190;47.918;8.112;2023-12-14T11:04:18;0.40;;;0.40;;
69906;SDS011;57190;47.918;8.112;2023-12-14T11:06:45;0.50;;;0.50;;
69906;SDS011;57190;47.918;8.112;2023-12-14T11:09:13;0.60;;;0.60;;
69906;SDS011;57190;47.918;8.112;2023-12-14T11:11:48;0.57;;;0.50;;
69906;SDS011;57190;47.918;8.112;2023-12-14T11:14:25;0.40;;;0.40;;
69906;SDS011;57190;47.918;8.112;2023-12-14T11:16:55;0.50;;;0.50;;
69906;SDS011;57190;47.918;8.112;2023-12-14T11:19:27;0.50;;;0.50;;
69906;SDS011;57190;47.918;8.112;2023-12-14T11:24:23;0.60;;;0.60;;
69906;SDS011;57190;47.918;8.112;2023-12-14T11:26:49;0.60;;;0.60;;
69906;SDS011;57190;47.918;8.112;2023-12-14T11:29:16;0.57;;;0.57;;
69906;SDS011;57190;47.918;8.112;2023-12-14T11:31:42;0.53;;;0.53;;
69906;SDS011;57190;47.918;8.112;2023-12-14T11:34:08;0.50;;;0.50;;
69906;SDS011;57190;47.918;8.112;2023-12-14T11:36:33;0.50;;;0.50;;
69906;SDS011;57190;47.918;8.112;2023-12-14T11:38:59;0.40;;;0.40;;
69906;SDS011;57190;47.918;8.112;2023-12-14T11:41:24;0.50;;;0.50;;
69906;SDS011;57190;47.918;8.112;2023-12-14T11:43:50;0.50;;;0.50;;
69906;SDS011;57190;47.918;8.112;2023-12-14T11:46:17;0.50;;;0.50;;
69906;SDS011;57190;47.918;8.112;2023-12-14T11:48:46;0.50;;;0.50;;
69906;SDS011;57190;47.918;8.112;2023-12-14T11:51:16;0.40;;;0.40;;
69906;SDS011;57190;47.918;8.112;2023-12-14T11:53:45;0.60;;;0.60;;
69906;SDS011;57190;47.918;8.112;2023-12-14T11:56:14;0.60;;;0.60;;
69906;SDS011;57190;47.918;8.112;2023-12-14T11:58:45;0.50;;;0.50;;
69906;SDS011;57190;47.918;8.112;2023-12-14T12:01:16;0.67;;;0.67;;
69906;SDS011;57190;47.918;8.112;2023-12-14T12:03:43;0.70;;;0.70;;
69906;SDS011;57190;47.918;8.112;2023-12-14T12:06:22;0.50;;;0.50;;
69906;SDS011;57190;47.918;8.112;2023-12-14T12:08:49;0.50;;;0.50;;
69906;SDS011;57190;47.918;8.112;2023-12-14T12:11:18;0.40;;;0.40;;
69906;SDS011;57190;47.918;8.112;2023-12-14T12:13:50;0.50;;;0.50;;
69906;SDS011;57190;47.918;8.112;2023-12-14T12:16:16;0.50;;;0.50;;
69906;SDS011;57190;47.918;8.112;2023-12-14T12:18:42;0.53;;;0.50;;
69906;SDS011;57190;47.918;8.112;2023-12-14T12:21:07;1.07;;;0.40;;
69906;SDS011;57190;47.918;8.112;2023-12-14T12:23:34;0.60;;;0.60;;
69906;SDS011;57190;47.918;8.112;2023-12-14T12:26:00;0.40;;;0.40;;
69906;SDS011;57190;47.918;8.112;2023-12-14T12:28:26;0.60;;;0.60;;
69906;SDS011;57190;47.918;8.112;2023-12-14T12:30:52;0.50;;;0.50;;
69906;SDS011;57190;47.918;8.112;2023-12-14T12:33:18;0.60;;;0.60;;
69906;SDS011;57190;47.918;8.112;2023-12-14T12:35:43;0.60;;;0.60;;
69906;SDS011;57190;47.918;8.112;2023-12-14T12:38:09;0.60;;;0.60;;
69906;SDS011;57190;47.918;8.112;2023-12-14T12:40:34;0.60;;;0.60;;
69906;SDS011;57190;47.918;8.112;2023-12-14T12:43:00;0.60;;;0.60;;
69906;SDS011;57190;47.918;8.112;2023-12-14T12:45:26;0.70;;;0.70;;
69906;SDS011;57190;47.918;8.112;2023-12-14T12:47:52;0.77;;;0.77;;
69906;SDS011;57190;47.918;8.112;2023-12-14T12:50:18;0.70;;;0.70;;
69906;SDS011;57190;47.918;8.112;2023-12-14T12:52:45;0.70;;;0.70;;
69906;SDS011;57190;47.918;8.112;2023-12-14T12:55:13;0.70;;;0.70;;
69906;SDS011;57190;47.918;8.112;2023-12-14T12:57:40;0.80;;;0.80;;
69906;SDS011;57190;47.918;8.112;2023-12-14T13:00:09;0.87;;;0.87;;
69906;SDS011;57190;47.918;8.112;2023-12-14T13:02:38;1.00;;;1.00;;
69906;SDS011;57190;47.918;8.112;2023-12-14T13:05:05;1.00;;;1.00;;
69906;SDS011;57190;47.918;8.112;2023-12-14T13:07:32;0.83;;;0.83;;
69906;SDS011;57190;47.918;8.112;2023-12-14T13:09:59;0.97;;;0.97;;
69906;SDS011;57190;47.918;8.112;2023-12-14T13:12:24;1.10;;;1.00;;
69906;SDS011;57190;47.918;8.112;2023-12-14T13:14:50;1.10;;;1.10;;
69906;SDS011;57190;47.918;8.112;2023-12-14T13:17:15;1.20;;;1.10;;
69906;SDS011;57190;47.918;8.112;2023-12-14T13:19:43;1.60;;;1.20;;
69906;SDS011;57190;47.918;8.112;2023-12-14T13:22:09;0.97;;;0.97;;
69906;SDS011;57190;47.918;8.112;2023-12-14T13:24:36;1.57;;;1.20;;
69906;SDS011;57190;47.918;8.112;2023-12-14T13:27:02;1.50;;;1.33;;
69906;SDS011;57190;47.918;8.112;2023-12-14T13:29:29;2.07;;;1.80;;
69906;SDS011;57190;47.918;8.112;2023-12-14T13:31:57;1.50;;;1.40;;
69906;SDS011;57190;47.918;8.112;2023-12-14T13:34:22;1.10;;;1.10;;
69906;SDS011;57190;47.918;8.112;2023-12-14T13:36:48;1.07;;;1.07;;
69906;SDS011;57190;47.918;8.112;2023-12-14T13:39:13;1.60;;;1.50;;
69906;SDS011;57190;47.918;8.112;2023-12-14T13:41:39;1.10;;;1.10;;
69906;SDS011;57190;47.918;8.112;2023-12-14T13:44:05;2.73;;;2.53;;
69906;SDS011;57190;47.918;8.112;2023-12-14T13:46:30;4.17;;;3.70;;
69906;SDS011;57190;47.918;8.112;2023-12-14T13:48:56;4.00;;;3.60;;
69906;SDS011;57190;47.918;8.112;2023-12-14T13:51:22;2.00;;;1.90;;
69906;SDS011;57190;47.918;8.112;2023-12-14T13:53:47;2.07;;;1.87;;
69906;SDS011;57190;47.918;8.112;2023-12-14T13:56:13;1.70;;;1.60;;
69906;SDS011;57190;47.918;8.112;2023-12-14T13:58:38;1.50;;;1.40;;
69906;SDS011;57190;47.918;8.112;2023-12-14T14:01:04;1.60;;;1.50;;
69906;SDS011;57190;47.918;8.112;2023-12-14T14:03:34;1.90;;;1.80;;
69906;SDS011;57190;47.918;8.112;2023-12-14T14:06:01;1.90;;;1.80;;
69906;SDS011;57190;47.918;8.112;2023-12-14T14:08:27;5.50;;;4.83;;
69906;SDS011;57190;47.918;8.112;2023-12-14T14:10:53;3.43;;;3.13;;
69906;SDS011;57190;47.918;8.112;2023-12-14T14:13:19;1.70;;;1.60;;
69906;SDS011;57190;47.918;8.112;2023-12-14T14:15:48;2.40;;;2.27;;
69906;SDS011;57190;47.918;8.112;2023-12-14T14:18:13;2.43;;;2.23;;
69906;SDS011;57190;47.918;8.112;2023-12-14T14:20:39;6.27;;;5.27;;
69906;SDS011;57190;47.918;8.112;2023-12-14T14:23:05;1.73;;;1.63;;
69906;SDS011;57190;47.918;8.112;2023-12-14T14:25:30;2.30;;;2.20;;
69906;SDS011;57190;47.918;8.112;2023-12-14T14:27:56;1.97;;;1.87;;
69906;SDS011;57190;47.918;8.112;2023-12-14T14:30:22;2.80;;;2.60;;
69906;SDS011;57190;47.918;8.112;2023-12-14T14:32:48;3.27;;;2.97;;
69906;SDS011;57190;47.918;8.112;2023-12-14T14:35:13;1.80;;;1.70;;
69906;SDS011;57190;47.918;8.112;2023-12-14T14:37:39;1.77;;;1.67;;
69906;SDS011;57190;47.918;8.112;2023-12-14T14:40:10;1.90;;;1.80;;
69906;SDS011;57190;47.918;8.112;2023-12-14T14:42:36;1.97;;;1.80;;
69906;SDS011;57190;47.918;8.112;2023-12-14T14:45:02;1.60;;;1.50;;
69906;SDS011;57190;47.918;8.112;2023-12-14T14:47:28;2.23;;;2.13;;
69906;SDS011;57190;47.918;8.112;2023-12-14T14:49:53;2.40;;;2.20;;